This is the latest recevied weather packets stored in our database for station/object IR1ZYZ-3. If no packets are shown the sender has not sent any weather packets the latest 10 day(s).
| Time | Temp. | Humidity | Pressure | Rain* | Wind** | Luminosity | Snow |
|---|---|---|---|---|---|---|---|
| 1787411591 | 33.89° C | 38% | 1013.4 hPa | - | - | - | - |
| 1787410985 | 35.56° C | 35% | 1013.3 hPa | - | - | - | - |
| 1787410380 | 36.11° C | 35% | 1013.3 hPa | - | - | - | - |
| 1787409775 | 36.11° C | 33% | 1013.3 hPa | - | - | - | - |
| 1787409170 | 34.44° C | 37% | 1013.4 hPa | - | - | - | - |
| 1787408564 | 35° C | 39% | 1013.4 hPa | - | - | - | - |
| 1787407958 | 33.89° C | 43% | 1013.4 hPa | - | - | - | - |
| 1787407353 | 35.56° C | 39% | 1013.3 hPa | - | - | - | - |
| 1787406747 | 35° C | 40% | 1013.3 hPa | - | - | - | - |
| 1787406142 | 35° C | 42% | 1013.4 hPa | - | - | - | - |
| 1787405537 | 32.78° C | 44% | 1013.6 hPa | - | - | - | - |
| 1787404931 | 34.44° C | 40% | 1013.4 hPa | - | - | - | - |
| 1787404326 | 33.89° C | 45% | 1013.4 hPa | - | - | - | - |
| 1787403721 | 36.11° C | 42% | 1013.3 hPa | - | - | - | - |
| 1787403115 | 35.56° C | 42% | 1013.3 hPa | - | - | - | - |
| 1787402510 | 35° C | 45% | 1013.4 hPa | - | - | - | - |
| 1787401905 | 33.89° C | 42% | 1013.5 hPa | - | - | - | - |
| 1787401299 | 35.56° C | 43% | 1013.5 hPa | - | - | - | - |
| 1787400694 | 35° C | 45% | 1013.5 hPa | - | - | - | - |
| 1787400088 | 32.22° C | 48% | 1013.7 hPa | - | - | - | - |
| 1787399484 | 32.78° C | 49% | 1013.7 hPa | - | - | - | - |
| 1787398878 | 35° C | 46% | 1013.5 hPa | - | - | - | - |
| 1787398273 | 34.44° C | 44% | 1013.5 hPa | - | - | - | - |
| 1787397674 | 35° C | 45% | 1013.5 hPa | - | - | - | - |
| 1787397064 | 33.33° C | 50% | 1013.6 hPa | - | - | - | - |
* Rain since midnight (hover to see other rain measurements)
** Current wind speed in m/s (hover to see current wind gust speed)